Time;durP1;ratioP1;P1;durP2;ratioP2;P2;SDS_P1;SDS_P2;PMS_P1;PMS_P2;Temp;Humidity;BMP_temperature;BMP_pressure;BME280_temperature;BME280_humidity;BME280_pressure;Samples;Min_cycle;Max_cycle;Signal;HPM_P1;HPM_P2
2021/12/23 00:02:05;;;;;;;23.57;16.63;;;;;;;;;;5040720;28;20397;-63
2021/12/23 00:04:31;;;;;;;26.10;15.90;;;;;;;;;;5040294;28;20472;-63
2021/12/23 00:06:57;;;;;;;22.03;16.37;;;;;;;;;;5040586;28;20822;-63
2021/12/23 00:09:31;;;;;;;24.10;16.13;;;;;;;;;;5041195;28;20433;-63
2021/12/23 00:11:57;;;;;;;31.63;17.37;;;;;;;;;;5040906;28;20383;-63
2021/12/23 00:14:23;;;;;;;30.60;16.23;;;;;;;;;;5040211;28;20419;-63
2021/12/23 00:17:07;;;;;;;23.40;15.50;;;;;;;;;;5040305;28;20450;-63
2021/12/23 00:24:43;;;;;;;23.13;15.50;;;;;;;;;;5039906;28;20552;-63
2021/12/23 00:27:10;;;;;;;30.60;17.27;;;;;;;;;;5039697;28;20915;-63
2021/12/23 00:29:37;;;;;;;28.47;17.47;;;;;;;;;;5039475;28;20410;-63
2021/12/23 00:32:05;;;;;;;28.67;16.90;;;;;;;;;;5039200;28;20758;-63
2021/12/23 00:34:32;;;;;;;27.83;16.40;;;;;;;;;;5039139;28;20474;-63
2021/12/23 00:36:59;;;;;;;28.43;17.47;;;;;;;;;;5039497;28;20436;-63
2021/12/23 00:39:27;;;;;;;27.23;16.97;;;;;;;;;;5040300;28;20419;-63
2021/12/23 00:41:54;;;;;;;27.80;17.60;;;;;;;;;;5039652;28;20421;-63
2021/12/23 00:44:21;;;;;;;23.57;16.50;;;;;;;;;;5039930;28;20513;-63
2021/12/23 00:46:47;;;;;;;29.60;18.27;;;;;;;;;;5039837;28;20931;-63
2021/12/23 00:49:13;;;;;;;24.07;15.00;;;;;;;;;;5040066;28;20480;-63
2021/12/23 00:51:39;;;;;;;25.67;16.77;;;;;;;;;;5039431;28;20485;-63
2021/12/23 00:54:05;;;;;;;22.77;16.93;;;;;;;;;;5039394;28;20418;-63
2021/12/23 00:56:32;;;;;;;24.33;16.23;;;;;;;;;;5039169;28;20402;-63
2021/12/23 00:58:58;;;;;;;27.60;16.30;;;;;;;;;;5038997;28;20406;-63
2021/12/23 01:01:24;;;;;;;24.60;15.73;;;;;;;;;;5038863;28;20406;-63
2021/12/23 01:03:50;;;;;;;28.70;15.80;;;;;;;;;;5039270;28;20433;-63
2021/12/23 01:06:16;;;;;;;24.27;16.60;;;;;;;;;;5039273;28;20450;-63
2021/12/23 01:08:42;;;;;;;23.60;14.70;;;;;;;;;;5036484;28;20790;-63
2021/12/23 01:11:09;;;;;;;25.03;16.50;;;;;;;;;;5036268;28;20403;-63
2021/12/23 01:13:37;;;;;;;30.30;16.60;;;;;;;;;;5036373;28;20490;-63
2021/12/23 01:16:06;;;;;;;24.40;15.33;;;;;;;;;;5036374;28;20415;-62
2021/12/23 01:18:38;;;;;;;21.43;14.40;;;;;;;;;;5036602;28;20965;-62
2021/12/23 01:21:15;;;;;;;23.60;14.30;;;;;;;;;;5037043;28;20397;-60
2021/12/23 01:23:43;;;;;;;27.80;14.43;;;;;;;;;;5036262;28;20418;-62
2021/12/23 01:26:09;;;;;;;33.33;16.50;;;;;;;;;;5035910;28;20445;-63
2021/12/23 01:28:35;;;;;;;23.07;15.13;;;;;;;;;;5036058;28;20773;-63
2021/12/23 01:31:01;;;;;;;27.00;13.93;;;;;;;;;;5035822;28;20406;-63
2021/12/23 01:33:27;;;;;;;24.93;16.37;;;;;;;;;;5035645;28;20445;-62
2021/12/23 01:35:54;;;;;;;26.30;15.60;;;;;;;;;;5035626;28;20414;-63
2021/12/23 01:38:20;;;;;;;24.73;14.80;;;;;;;;;;5035805;28;20453;-63
2021/12/23 01:40:46;;;;;;;23.30;15.10;;;;;;;;;;5035978;28;20407;-62
2021/12/23 01:43:13;;;;;;;22.60;14.57;;;;;;;;;;5036793;28;20900;-63
2021/12/23 01:45:43;;;;;;;18.17;13.00;;;;;;;;;;5035344;28;20454;-63
2021/12/23 01:48:09;;;;;;;21.37;14.37;;;;;;;;;;5035254;28;20427;-63
2021/12/23 01:50:37;;;;;;;17.97;12.37;;;;;;;;;;5035144;28;20406;-63
2021/12/23 01:53:03;;;;;;;18.20;13.03;;;;;;;;;;5035993;28;20768;-63
2021/12/23 01:55:30;;;;;;;23.43;13.40;;;;;;;;;;5036399;28;20849;-62
2021/12/23 01:57:57;;;;;;;20.73;14.60;;;;;;;;;;5035995;28;20777;-63
2021/12/23 02:00:25;;;;;;;22.43;15.20;;;;;;;;;;5035873;28;20418;-63
2021/12/23 02:02:52;;;;;;;19.33;14.03;;;;;;;;;;5036178;28;20413;-61
2021/12/23 02:05:18;;;;;;;22.00;14.60;;;;;;;;;;5035722;28;20450;-61
2021/12/23 02:07:45;;;;;;;29.30;15.47;;;;;;;;;;5035680;28;20407;-62
2021/12/23 02:10:11;;;;;;;22.70;14.40;;;;;;;;;;5035259;28;20418;-61
2021/12/23 02:12:37;;;;;;;20.07;14.00;;;;;;;;;;5044798;28;20399;-62
2021/12/23 02:15:04;;;;;;;18.37;13.20;;;;;;;;;;5049582;28;20427;-62
2021/12/23 02:17:34;;;;;;;15.43;12.20;;;;;;;;;;5042156;28;20431;-63
2021/12/23 02:20:00;;;;;;;26.87;12.57;;;;;;;;;;5035175;28;20411;-63
2021/12/23 02:22:26;;;;;;;21.27;13.10;;;;;;;;;;5034344;28;20466;-63
2021/12/23 02:24:52;;;;;;;22.50;13.40;;;;;;;;;;5034240;28;20946;-63
2021/12/23 02:27:18;;;;;;;22.37;13.63;;;;;;;;;;5034243;28;20395;-63
2021/12/23 02:29:44;;;;;;;20.73;15.00;;;;;;;;;;5034212;28;20394;-63
2021/12/23 02:32:10;;;;;;;21.30;13.10;;;;;;;;;;5034277;28;20557;-63
2021/12/23 02:34:36;;;;;;;19.47;12.30;;;;;;;;;;5034113;28;20801;-63
2021/12/23 02:37:03;;;;;;;21.60;13.40;;;;;;;;;;5034041;28;20422;-63
2021/12/23 02:39:29;;;;;;;19.70;12.17;;;;;;;;;;5033986;28;20403;-63
2021/12/23 02:41:56;;;;;;;20.17;12.53;;;;;;;;;;5032767;28;20419;-63
2021/12/23 02:44:22;;;;;;;20.37;11.93;;;;;;;;;;5033889;28;20427;-63
2021/12/23 02:46:49;;;;;;;20.53;13.30;;;;;;;;;;5034163;28;20446;-63
2021/12/23 02:49:15;;;;;;;24.87;14.37;;;;;;;;;;5033589;28;20510;-63
2021/12/23 02:51:42;;;;;;;21.93;12.40;;;;;;;;;;5033621;28;20469;-63
2021/12/23 02:54:08;;;;;;;18.47;12.43;;;;;;;;;;5032723;28;20755;-62
2021/12/23 02:56:34;;;;;;;17.83;13.10;;;;;;;;;;5046046;28;20444;-63
2021/12/23 02:59:00;;;;;;;21.10;11.90;;;;;;;;;;5053701;28;20875;-63
2021/12/23 03:01:26;;;;;;;18.10;11.10;;;;;;;;;;5054114;28;20428;-63
2021/12/23 03:03:53;;;;;;;21.20;13.97;;;;;;;;;;5053787;28;20847;-63
2021/12/23 03:06:20;;;;;;;20.70;11.50;;;;;;;;;;5053784;28;20603;-63
2021/12/23 03:08:56;;;;;;;19.70;13.20;;;;;;;;;;5053920;28;20402;-63
2021/12/23 03:11:23;;;;;;;18.47;12.23;;;;;;;;;;5054040;28;20394;-63
2021/12/23 03:13:50;;;;;;;19.40;12.80;;;;;;;;;;5053710;28;20422;-63
2021/12/23 03:16:19;;;;;;;19.50;11.53;;;;;;;;;;5053581;28;20436;-63
2021/12/23 03:18:45;;;;;;;20.97;13.20;;;;;;;;;;5053830;28;20402;-63
2021/12/23 03:21:11;;;;;;;21.60;13.27;;;;;;;;;;5053590;28;20398;-63
2021/12/23 03:23:37;;;;;;;20.73;12.53;;;;;;;;;;5053482;28;20398;-63
2021/12/23 03:26:05;;;;;;;20.10;13.37;;;;;;;;;;5053719;28;20454;-62
2021/12/23 03:28:31;;;;;;;20.87;13.13;;;;;;;;;;5053997;28;20883;-63
2021/12/23 03:30:57;;;;;;;20.90;13.50;;;;;;;;;;5054293;28;20398;-62
2021/12/23 03:33:23;;;;;;;18.00;12.70;;;;;;;;;;5054107;28;20939;-61
2021/12/23 03:35:50;;;;;;;20.93;12.53;;;;;;;;;;5054806;28;20455;-62
2021/12/23 03:38:16;;;;;;;20.70;12.77;;;;;;;;;;5053634;28;20410;-63
2021/12/23 03:40:42;;;;;;;22.73;13.60;;;;;;;;;;5053602;28;20413;-63
2021/12/23 03:43:11;;;;;;;19.73;13.80;;;;;;;;;;5053368;28;20500;-63
2021/12/23 03:45:37;;;;;;;18.83;12.57;;;;;;;;;;5052769;28;20491;-63
2021/12/23 03:48:03;;;;;;;20.93;13.27;;;;;;;;;;5052853;28;20456;-63
2021/12/23 03:50:29;;;;;;;23.90;14.50;;;;;;;;;;5053036;28;20496;-63
2021/12/23 03:52:56;;;;;;;21.70;13.77;;;;;;;;;;5052953;28;20944;-63
2021/12/23 03:55:22;;;;;;;20.60;12.97;;;;;;;;;;5051718;28;20430;-63
2021/12/23 03:57:48;;;;;;;18.13;12.50;;;;;;;;;;5052996;28;20482;-63
2021/12/23 04:00:16;;;;;;;19.00;12.83;;;;;;;;;;5051639;28;20410;-63
2021/12/23 04:02:42;;;;;;;18.70;12.23;;;;;;;;;;5052977;28;20484;-62
2021/12/23 04:05:09;;;;;;;18.40;13.30;;;;;;;;;;5052911;28;20540;-63
2021/12/23 04:07:35;;;;;;;24.23;12.63;;;;;;;;;;5052364;28;20455;-63
2021/12/23 04:10:02;;;;;;;19.77;12.60;;;;;;;;;;5053401;28;20401;-63
2021/12/23 04:12:28;;;;;;;18.80;12.67;;;;;;;;;;5052909;28;20409;-63
2021/12/23 04:14:54;;;;;;;20.87;12.87;;;;;;;;;;5052773;28;20464;-63
2021/12/23 04:17:20;;;;;;;25.50;15.27;;;;;;;;;;5053093;28;20417;-62
2021/12/23 04:19:47;;;;;;;26.20;13.20;;;;;;;;;;5052670;28;20402;-63
2021/12/23 04:22:13;;;;;;;23.37;12.40;;;;;;;;;;5052709;28;20398;-63
2021/12/23 04:24:39;;;;;;;18.70;12.57;;;;;;;;;;5052862;28;20840;-63
2021/12/23 04:27:06;;;;;;;22.37;13.43;;;;;;;;;;5044539;28;20953;-63
2021/12/23 04:29:32;;;;;;;18.83;12.30;;;;;;;;;;5052603;28;20921;-63
2021/12/23 04:31:59;;;;;;;18.37;12.80;;;;;;;;;;5050560;28;20457;-63
2021/12/23 04:34:26;;;;;;;20.83;11.30;;;;;;;;;;5050475;28;20442;-63
2021/12/23 04:36:52;;;;;;;20.87;13.10;;;;;;;;;;5036226;28;20410;-63
2021/12/23 04:39:18;;;;;;;24.33;13.00;;;;;;;;;;5036928;28;20896;-63
2021/12/23 04:41:44;;;;;;;28.37;14.50;;;;;;;;;;5036503;28;20456;-62
2021/12/23 04:44:10;;;;;;;20.90;12.50;;;;;;;;;;5035212;28;20434;-62
2021/12/23 04:46:37;;;;;;;24.47;12.50;;;;;;;;;;5036374;28;20446;-61
2021/12/23 04:49:03;;;;;;;25.40;13.77;;;;;;;;;;5036243;28;20422;-57
2021/12/23 04:51:29;;;;;;;16.30;12.27;;;;;;;;;;5036239;28;20407;-60
2021/12/23 04:53:55;;;;;;;22.87;13.13;;;;;;;;;;5036206;28;20422;-59
2021/12/23 04:56:21;;;;;;;24.37;14.10;;;;;;;;;;5036443;28;20411;-63
2021/12/23 04:58:47;;;;;;;22.63;13.53;;;;;;;;;;5036055;28;20967;-63
2021/12/23 05:01:20;;;;;;;19.67;12.57;;;;;;;;;;5036428;28;20414;-62
2021/12/23 05:03:50;;;;;;;19.63;12.00;;;;;;;;;;5035912;28;20458;-63
2021/12/23 05:06:16;;;;;;;19.73;13.40;;;;;;;;;;5050534;28;20453;-63
2021/12/23 05:08:43;;;;;;;19.03;12.47;;;;;;;;;;5056538;28;20816;-63
2021/12/23 05:11:09;;;;;;;19.17;12.40;;;;;;;;;;5054220;28;20406;-63
2021/12/23 05:13:35;;;;;;;18.90;13.00;;;;;;;;;;5039767;28;20433;-63
2021/12/23 05:16:01;;;;;;;18.73;11.83;;;;;;;;;;5040365;28;20403;-64
2021/12/23 05:18:27;;;;;;;18.00;12.37;;;;;;;;;;5039605;28;20410;-63
2021/12/23 05:20:54;;;;;;;24.77;12.50;;;;;;;;;;5037693;28;20406;-63
2021/12/23 05:23:20;;;;;;;26.70;14.50;;;;;;;;;;5038195;28;20403;-63
2021/12/23 05:25:46;;;;;;;22.90;12.50;;;;;;;;;;5037308;28;20447;-63
2021/12/23 05:28:13;;;;;;;21.50;12.80;;;;;;;;;;5038709;28;20892;-63
2021/12/23 05:30:40;;;;;;;19.00;12.63;;;;;;;;;;5038281;28;20899;-63
2021/12/23 05:33:06;;;;;;;24.13;12.70;;;;;;;;;;5037804;28;20423;-63
2021/12/23 05:35:32;;;;;;;18.80;12.47;;;;;;;;;;5038651;28;20811;-63
2021/12/23 05:37:58;;;;;;;25.67;12.70;;;;;;;;;;5038769;28;20418;-63
2021/12/23 05:40:25;;;;;;;24.23;14.03;;;;;;;;;;5038696;28;20411;-63
2021/12/23 05:42:52;;;;;;;18.77;13.07;;;;;;;;;;5038404;28;20654;-63
2021/12/23 05:45:19;;;;;;;23.87;13.10;;;;;;;;;;5036489;28;20460;-63
2021/12/23 05:47:46;;;;;;;18.53;12.30;;;;;;;;;;5036571;28;20811;-62
2021/12/23 05:50:13;;;;;;;20.30;12.37;;;;;;;;;;5036144;28;20409;-61
2021/12/23 05:52:39;;;;;;;20.30;12.90;;;;;;;;;;5036790;28;20403;-63
2021/12/23 05:55:06;;;;;;;22.60;14.13;;;;;;;;;;5037694;28;20469;-63
2021/12/23 05:57:32;;;;;;;21.37;12.80;;;;;;;;;;5037879;28;20461;-63
2021/12/23 06:00:00;;;;;;;17.97;14.30;;;;;;;;;;5037659;28;20403;-63
2021/12/23 06:02:26;;;;;;;24.17;13.50;;;;;;;;;;5038184;28;20415;-63
2021/12/23 06:04:52;;;;;;;25.67;13.97;;;;;;;;;;5038188;28;20488;-63
2021/12/23 06:07:18;;;;;;;22.37;14.37;;;;;;;;;;5038596;28;20403;-63
2021/12/23 06:09:44;;;;;;;24.13;15.93;;;;;;;;;;5038734;28;20410;-63
2021/12/23 06:12:11;;;;;;;25.97;14.90;;;;;;;;;;5039459;28;20426;-63
2021/12/23 06:14:37;;;;;;;22.90;13.60;;;;;;;;;;5038755;28;20419;-63
2021/12/23 06:17:03;;;;;;;22.43;13.77;;;;;;;;;;5038746;28;20763;-63
2021/12/23 06:19:30;;;;;;;25.00;15.37;;;;;;;;;;5039573;28;20403;-63
2021/12/23 06:21:56;;;;;;;28.40;16.37;;;;;;;;;;5037856;28;20410;-63
2021/12/23 06:24:22;;;;;;;24.63;16.17;;;;;;;;;;5039326;28;20445;-63
2021/12/23 06:26:48;;;;;;;29.87;16.40;;;;;;;;;;5039592;28;20506;-63
2021/12/23 06:29:14;;;;;;;24.37;15.73;;;;;;;;;;5038667;28;20961;-63
2021/12/23 06:31:40;;;;;;;24.50;15.60;;;;;;;;;;5037981;28;20399;-63
2021/12/23 06:34:06;;;;;;;27.70;14.80;;;;;;;;;;5037012;28;20443;-63
2021/12/23 06:36:32;;;;;;;26.43;16.00;;;;;;;;;;5036494;28;20414;-63
2021/12/23 06:38:59;;;;;;;24.57;16.07;;;;;;;;;;5035267;28;20468;-63
2021/12/23 06:41:25;;;;;;;27.30;16.00;;;;;;;;;;5034602;28;20411;-63
2021/12/23 06:43:51;;;;;;;23.97;15.33;;;;;;;;;;5034084;28;20442;-63
2021/12/23 06:46:17;;;;;;;24.63;16.17;;;;;;;;;;5034045;28;20446;-63
2021/12/23 06:48:43;;;;;;;24.13;15.00;;;;;;;;;;5034066;28;20493;-63
2021/12/23 06:51:09;;;;;;;22.90;15.70;;;;;;;;;;5034713;28;20395;-63
2021/12/23 06:53:35;;;;;;;26.10;15.47;;;;;;;;;;5033985;28;20405;-63
2021/12/23 06:56:02;;;;;;;28.50;14.90;;;;;;;;;;5033875;28;20403;-63
2021/12/23 06:58:28;;;;;;;25.93;15.67;;;;;;;;;;5033939;28;20403;-63
2021/12/23 07:00:55;;;;;;;27.73;16.37;;;;;;;;;;5033730;28;20456;-63
2021/12/23 07:03:23;;;;;;;23.33;14.50;;;;;;;;;;5033821;28;20409;-63
2021/12/23 07:05:56;;;;;;;23.67;14.43;;;;;;;;;;5033483;28;20556;-63
2021/12/23 07:08:28;;;;;;;24.33;16.70;;;;;;;;;;5033695;28;20395;-63
2021/12/23 07:10:54;;;;;;;28.20;16.03;;;;;;;;;;5033825;28;20396;-63
2021/12/23 07:13:20;;;;;;;23.50;14.70;;;;;;;;;;5033493;28;20452;-63
2021/12/23 07:15:47;;;;;;;28.93;16.63;;;;;;;;;;5033522;28;20409;-63
2021/12/23 07:18:13;;;;;;;21.57;14.43;;;;;;;;;;5033466;28;20423;-63
2021/12/23 07:20:39;;;;;;;30.00;15.90;;;;;;;;;;5033349;28;20446;-63
2021/12/23 07:23:05;;;;;;;23.00;16.17;;;;;;;;;;5032067;28;20468;-63
2021/12/23 07:25:31;;;;;;;21.27;15.17;;;;;;;;;;5033428;28;20469;-63
2021/12/23 07:27:58;;;;;;;26.57;15.57;;;;;;;;;;5033441;28;20405;-63
2021/12/23 07:30:24;;;;;;;27.17;17.40;;;;;;;;;;5033299;28;20402;-63
2021/12/23 07:32:51;;;;;;;39.43;15.93;;;;;;;;;;5033592;28;20411;-63
2021/12/23 07:35:17;;;;;;;23.03;15.57;;;;;;;;;;5033223;28;20430;-63
2021/12/23 07:37:43;;;;;;;25.50;16.00;;;;;;;;;;5033476;28;20434;-63
2021/12/23 07:40:13;;;;;;;27.17;15.70;;;;;;;;;;5033585;28;20770;-63
2021/12/23 07:42:42;;;;;;;25.20;15.93;;;;;;;;;;5049979;28;22388;-64
2021/12/23 07:45:08;;;;;;;23.53;15.33;;;;;;;;;;5052448;28;21033;-64
2021/12/23 07:47:36;;;;;;;28.63;15.67;;;;;;;;;;5053410;28;20770;-64
2021/12/23 07:50:02;;;;;;;27.20;15.37;;;;;;;;;;5053197;28;20416;-64
2021/12/23 07:52:28;;;;;;;20.17;14.43;;;;;;;;;;5052885;28;20417;-64
2021/12/23 07:54:54;;;;;;;24.97;15.40;;;;;;;;;;5052952;28;20972;-64
2021/12/23 07:57:20;;;;;;;21.40;14.00;;;;;;;;;;5051613;28;20421;-64
2021/12/23 07:59:47;;;;;;;25.47;15.00;;;;;;;;;;5052218;28;20499;-64
2021/12/23 08:02:13;;;;;;;27.67;14.67;;;;;;;;;;5056947;28;20421;-64
2021/12/23 08:04:39;;;;;;;28.67;17.47;;;;;;;;;;5056539;28;20468;-64
2021/12/23 08:07:05;;;;;;;22.60;14.53;;;;;;;;;;5053387;28;20885;-63
2021/12/23 08:09:31;;;;;;;24.73;15.93;;;;;;;;;;5057004;28;20418;-64
2021/12/23 08:11:59;;;;;;;29.13;16.17;;;;;;;;;;5058212;28;20440;-61
2021/12/23 08:14:25;;;;;;;31.37;18.67;;;;;;;;;;5059414;28;20426;-59
2021/12/23 08:16:51;;;;;;;26.83;15.83;;;;;;;;;;5058186;28;20481;-63
2021/12/23 08:19:17;;;;;;;20.40;15.47;;;;;;;;;;5057817;28;20442;-60
2021/12/23 08:21:43;;;;;;;24.43;14.93;;;;;;;;;;5067842;28;20409;-61
2021/12/23 08:24:09;;;;;;;25.73;17.50;;;;;;;;;;5078361;28;20402;-59
2021/12/23 08:26:41;;;;;;;22.50;16.40;;;;;;;;;;5056613;28;20549;-59
2021/12/23 08:29:07;;;;;;;27.10;15.87;;;;;;;;;;5058258;28;20402;-61
2021/12/23 08:31:34;;;;;;;25.67;15.70;;;;;;;;;;5059903;28;22146;-62
2021/12/23 08:34:00;;;;;;;27.67;14.70;;;;;;;;;;5060614;28;20867;-59
2021/12/23 08:36:27;;;;;;;23.13;14.33;;;;;;;;;;5057165;28;20424;-59
2021/12/23 08:38:53;;;;;;;26.20;15.30;;;;;;;;;;5056838;28;20405;-61
2021/12/23 08:41:19;;;;;;;25.23;16.20;;;;;;;;;;5056320;28;20414;-61
2021/12/23 08:43:45;;;;;;;33.73;19.03;;;;;;;;;;5058022;28;20559;-63
2021/12/23 08:46:12;;;;;;;23.40;14.93;;;;;;;;;;5056871;28;20540;-62
2021/12/23 08:48:38;;;;;;;24.10;13.90;;;;;;;;;;5057912;28;20406;-59
2021/12/23 08:51:04;;;;;;;24.30;15.57;;;;;;;;;;5056831;28;20406;-60
2021/12/23 08:53:30;;;;;;;20.90;14.77;;;;;;;;;;5058252;28;20489;-60
2021/12/23 08:55:56;;;;;;;22.93;15.00;;;;;;;;;;5057033;28;20410;-62
2021/12/23 08:58:22;;;;;;;29.97;15.13;;;;;;;;;;5058166;28;20414;-61
2021/12/23 09:00:48;;;;;;;28.73;19.37;;;;;;;;;;5058542;28;20402;-62
2021/12/23 09:03:14;;;;;;;22.80;13.10;;;;;;;;;;5057047;28;20432;-56
2021/12/23 09:05:41;;;;;;;24.50;15.03;;;;;;;;;;5055672;28;20481;-60
2021/12/23 09:08:09;;;;;;;21.83;14.20;;;;;;;;;;5056901;28;20410;-58
2021/12/23 09:10:35;;;;;;;20.03;14.50;;;;;;;;;;5055651;28;20803;-59
2021/12/23 09:13:01;;;;;;;28.57;14.93;;;;;;;;;;5056337;28;20429;-60
2021/12/23 09:15:27;;;;;;;24.07;15.83;;;;;;;;;;5057050;28;20433;-58
2021/12/23 09:17:54;;;;;;;22.30;13.97;;;;;;;;;;5055521;28;20414;-58
2021/12/23 09:20:21;;;;;;;27.27;14.87;;;;;;;;;;5055578;28;20902;-58
2021/12/23 09:22:48;;;;;;;23.40;14.70;;;;;;;;;;5044857;28;20403;-59
2021/12/23 09:25:23;;;;;;;25.50;14.80;;;;;;;;;;5063591;28;20426;-59
2021/12/23 09:33:06;;;;;;;18.03;12.60;;;;;;;;;;5036341;28;20879;-61
2021/12/23 09:35:33;;;;;;;20.50;12.07;;;;;;;;;;5054744;28;20434;-60
2021/12/23 09:38:00;;;;;;;15.83;12.33;;;;;;;;;;5057513;28;20405;-62
2021/12/23 09:40:29;;;;;;;19.73;12.80;;;;;;;;;;5058042;28;20475;-61
2021/12/23 09:42:55;;;;;;;15.60;11.40;;;;;;;;;;5057720;28;20421;-59
2021/12/23 09:45:21;;;;;;;14.23;10.03;;;;;;;;;;5055686;28;20450;-58
2021/12/23 09:47:48;;;;;;;15.67;10.93;;;;;;;;;;5056539;28;20781;-60
2021/12/23 09:50:16;;;;;;;16.87;11.33;;;;;;;;;;5055099;28;20914;-59
2021/12/23 09:52:44;;;;;;;14.83;10.23;;;;;;;;;;5055041;28;20420;-60
2021/12/23 09:55:11;;;;;;;22.17;12.80;;;;;;;;;;5054301;28;20422;-59
2021/12/23 09:57:37;;;;;;;16.60;10.80;;;;;;;;;;5055274;28;20816;-59
2021/12/23 10:00:05;;;;;;;27.30;11.50;;;;;;;;;;5054026;28;20421;-57
2021/12/23 10:02:31;;;;;;;17.40;10.20;;;;;;;;;;5054679;28;20414;-59
2021/12/23 10:04:57;;;;;;;15.53;10.37;;;;;;;;;;5054043;28;20433;-61
2021/12/23 10:07:23;;;;;;;14.60;9.97;;;;;;;;;;5055732;28;20432;-59
2021/12/23 10:10:06;;;;;;;18.00;10.23;;;;;;;;;;5055346;28;20406;-57
2021/12/23 10:27:54;;;;;;;20.73;10.53;;;;;;;;;;5042003;28;20449;-64
2021/12/23 10:30:15;;;;;;;29.13;13.03;;;;;;;;;;5052963;28;20436;-64
2021/12/23 10:32:32;;;;;;;19.23;11.63;;;;;;;;;;5057709;28;20913;-64
2021/12/23 10:38:01;;;;;;;33.53;14.90;;;;;;;;;;5059178;28;20385;-63
2021/12/23 10:40:30;;;;;;;17.60;11.00;;;;;;;;;;5059482;28;20425;-62
2021/12/23 10:42:56;;;;;;;18.43;10.73;;;;;;;;;;5061360;28;20429;-63
2021/12/23 10:45:23;;;;;;;17.07;9.47;;;;;;;;;;5063204;28;20456;-65
2021/12/23 10:50:18;;;;;;;21.53;10.40;;;;;;;;;;5057673;28;20501;-62
2021/12/23 10:52:48;;;;;;;18.57;10.90;;;;;;;;;;5056104;28;20822;-62
2021/12/23 11:00:32;;;;;;;20.03;11.80;;;;;;;;;;5056050;28;20447;-61
2021/12/23 11:03:13;;;;;;;20.67;12.27;;;;;;;;;;5055893;28;20394;-60
2021/12/23 11:05:49;;;;;;;31.67;12.03;;;;;;;;;;5055804;28;20457;-62
2021/12/23 11:27:35;;;;;;;10.97;9.43;;;;;;;;;;5052845;28;20536;-63
2021/12/23 11:38:23;;;;;;;14.40;9.40;;;;;;;;;;5036581;28;20367;-63
2021/12/23 11:40:53;;;;;;;14.63;8.70;;;;;;;;;;5036598;28;20387;-63
2021/12/23 11:45:55;;;;;;;13.23;8.57;;;;;;;;;;5035510;28;20465;-63
2021/12/23 11:48:21;;;;;;;17.63;7.43;;;;;;;;;;5035368;28;20406;-63
2021/12/23 11:51:28;;;;;;;17.87;9.17;;;;;;;;;;5035532;28;20435;-63
2021/12/23 11:53:40;;;;;;;13.73;8.73;;;;;;;;;;5032084;28;20416;-63
2021/12/23 11:56:09;;;;;;;13.27;8.37;;;;;;;;;;5035352;28;20399;-63
2021/12/23 11:58:36;;;;;;;13.43;8.20;;;;;;;;;;5036045;28;20435;-63
2021/12/23 12:01:02;;;;;;;16.13;8.73;;;;;;;;;;5036025;28;20399;-63
2021/12/23 12:03:28;;;;;;;15.73;8.80;;;;;;;;;;5035959;28;20415;-63
2021/12/23 12:06:12;;;;;;;25.10;9.10;;;;;;;;;;5036186;28;20943;-63
2021/12/23 12:08:38;;;;;;;17.03;9.73;;;;;;;;;;5052560;28;20399;-63
2021/12/23 12:11:14;;;;;;;15.30;9.30;;;;;;;;;;5037143;28;20894;-63
2021/12/23 12:13:40;;;;;;;18.97;9.73;;;;;;;;;;5037627;28;20461;-63
2021/12/23 12:16:25;;;;;;;17.97;10.40;;;;;;;;;;5038199;28;20399;-61
2021/12/23 12:18:51;;;;;;;13.10;8.17;;;;;;;;;;5037005;28;20387;-62
2021/12/23 12:21:21;;;;;;;15.17;7.63;;;;;;;;;;5036686;28;20494;-60
2021/12/23 12:23:47;;;;;;;11.77;7.57;;;;;;;;;;5035856;28;20434;-64
2021/12/23 12:26:26;;;;;;;14.77;8.50;;;;;;;;;;5035587;28;20442;-62
2021/12/23 12:28:52;;;;;;;15.77;9.37;;;;;;;;;;5036361;28;20406;-62
2021/12/23 12:31:27;;;;;;;12.23;8.50;;;;;;;;;;5035925;28;20486;-63
2021/12/23 12:34:06;;;;;;;11.00;8.10;;;;;;;;;;5035899;28;20437;-62
2021/12/23 12:36:39;;;;;;;15.80;8.97;;;;;;;;;;5034856;28;20899;-63
2021/12/23 12:39:11;;;;;;;13.60;8.63;;;;;;;;;;5035438;28;20904;-63
2021/12/23 12:41:40;;;;;;;24.40;9.50;;;;;;;;;;5033966;28;20419;-62
2021/12/23 12:44:17;;;;;;;15.30;9.87;;;;;;;;;;5034921;28;21002;-63
2021/12/23 12:46:52;;;;;;;19.63;10.27;;;;;;;;;;5034852;28;20446;-63
2021/12/23 12:49:25;;;;;;;22.50;9.80;;;;;;;;;;5033474;28;20463;-63
2021/12/23 12:51:53;;;;;;;14.53;9.07;;;;;;;;;;5035312;28;20466;-63
2021/12/23 12:54:29;;;;;;;13.97;10.27;;;;;;;;;;5037088;28;20423;-62
2021/12/23 12:56:57;;;;;;;20.60;10.63;;;;;;;;;;5038781;28;20382;-62
2021/12/23 12:59:25;;;;;;;21.83;8.97;;;;;;;;;;5038399;28;20407;-62
2021/12/23 13:01:51;;;;;;;24.50;8.90;;;;;;;;;;5038154;28;20403;-63
2021/12/23 13:04:26;;;;;;;17.20;7.73;;;;;;;;;;5036587;28;20423;-62
2021/12/23 13:06:53;;;;;;;18.80;8.97;;;;;;;;;;5036886;28;20454;-64
2021/12/23 13:09:24;;;;;;;17.80;9.10;;;;;;;;;;5036610;28;20403;-64
2021/12/23 13:11:50;;;;;;;19.80;8.50;;;;;;;;;;5036772;28;20399;-64
2021/12/23 13:14:24;;;;;;;18.60;9.70;;;;;;;;;;5036543;28;20415;-64
2021/12/23 13:16:59;;;;;;;13.87;8.40;;;;;;;;;;5037350;28;20410;-64
2021/12/23 13:19:28;;;;;;;17.27;10.17;;;;;;;;;;5037251;28;20410;-64
2021/12/23 13:21:56;;;;;;;24.33;8.53;;;;;;;;;;5037921;28;20908;-64
2021/12/23 13:24:23;;;;;;;13.77;8.43;;;;;;;;;;5037376;28;20798;-64
2021/12/23 13:26:50;;;;;;;19.00;9.33;;;;;;;;;;5037343;28;20458;-64
2021/12/23 13:29:16;;;;;;;15.43;9.23;;;;;;;;;;5037338;28;20409;-64
2021/12/23 13:31:43;;;;;;;13.63;8.87;;;;;;;;;;5037409;28;20828;-63
2021/12/23 13:34:12;;;;;;;18.97;9.40;;;;;;;;;;5037443;28;20481;-64
2021/12/23 13:36:41;;;;;;;23.20;10.10;;;;;;;;;;5036710;28;20493;-64
2021/12/23 13:39:09;;;;;;;19.20;8.90;;;;;;;;;;5036564;28;20443;-64
2021/12/23 13:41:55;;;;;;;23.90;10.77;;;;;;;;;;5037460;28;20402;-64
2021/12/23 13:44:23;;;;;;;17.70;9.23;;;;;;;;;;5036964;28;20441;-64
2021/12/23 13:47:01;;;;;;;15.53;9.10;;;;;;;;;;5037155;28;20454;-64
2021/12/23 13:49:48;;;;;;;18.40;8.90;;;;;;;;;;5038639;28;20441;-64
2021/12/23 13:52:26;;;;;;;13.93;7.40;;;;;;;;;;5037782;28;20438;-64
2021/12/23 13:54:56;;;;;;;15.27;7.50;;;;;;;;;;5038161;28;20428;-63
2021/12/23 13:57:23;;;;;;;10.47;6.50;;;;;;;;;;5039036;28;20403;-64
2021/12/23 13:59:52;;;;;;;12.77;5.40;;;;;;;;;;5040838;28;20900;-64
2021/12/23 14:02:19;;;;;;;15.30;9.10;;;;;;;;;;5042275;28;20460;-64
2021/12/23 14:04:46;;;;;;;13.43;8.03;;;;;;;;;;5041410;28;20522;-64
2021/12/23 14:07:14;;;;;;;12.30;6.17;;;;;;;;;;5036970;28;20997;-63
2021/12/23 14:09:42;;;;;;;12.00;5.83;;;;;;;;;;5038208;28;20879;-63
2021/12/23 14:12:11;;;;;;;18.10;4.97;;;;;;;;;;5036303;28;20472;-63
2021/12/23 14:14:49;;;;;;;21.83;5.03;;;;;;;;;;5035812;28;20819;-63
2021/12/23 14:17:29;;;;;;;9.00;4.90;;;;;;;;;;5035484;28;20734;-63
2021/12/23 14:23:12;;;;;;;8.23;4.20;;;;;;;;;;5035692;28;20398;-63
2021/12/23 14:25:33;;;;;;;9.17;4.37;;;;;;;;;;5035789;28;20874;-62
2021/12/23 14:27:59;;;;;;;11.50;4.90;;;;;;;;;;5036225;28;20449;-64
2021/12/23 14:30:39;;;;;;;8.23;3.97;;;;;;;;;;5035362;28;20395;-64
2021/12/23 14:33:13;;;;;;;14.23;4.33;;;;;;;;;;5036622;28;20963;-64
2021/12/23 14:35:39;;;;;;;8.53;4.30;;;;;;;;;;5037116;28;20442;-62
2021/12/23 14:38:05;;;;;;;9.73;3.37;;;;;;;;;;5036379;28;20967;-65
2021/12/23 14:40:31;;;;;;;12.30;3.23;;;;;;;;;;5035557;28;20485;-63
2021/12/23 14:43:02;;;;;;;7.50;4.27;;;;;;;;;;5035249;28;20465;-62
2021/12/23 14:45:28;;;;;;;12.20;4.40;;;;;;;;;;5035427;28;20489;-62
2021/12/23 14:48:09;;;;;;;11.70;4.00;;;;;;;;;;5035476;28;20486;-62
2021/12/23 14:50:50;;;;;;;5.90;3.60;;;;;;;;;;5036036;28;20389;-62
2021/12/23 14:53:17;;;;;;;11.20;3.47;;;;;;;;;;5037955;28;20383;-63
2021/12/23 14:55:52;;;;;;;9.00;4.30;;;;;;;;;;5043233;28;20463;-63
2021/12/23 14:58:18;;;;;;;9.93;3.90;;;;;;;;;;5043841;28;20479;-63
2021/12/23 15:00:45;;;;;;;8.77;3.87;;;;;;;;;;5043040;28;20410;-63
2021/12/23 15:03:11;;;;;;;8.50;3.43;;;;;;;;;;5043349;28;20484;-61
2021/12/23 15:05:38;;;;;;;6.10;3.90;;;;;;;;;;5035982;28;20458;-62
2021/12/23 15:08:04;;;;;;;9.37;3.83;;;;;;;;;;5035853;28;20403;-62
2021/12/23 15:10:38;;;;;;;7.90;3.80;;;;;;;;;;5047602;28;20409;-62
2021/12/23 15:13:22;;;;;;;9.27;4.00;;;;;;;;;;5053047;28;20422;-65
2021/12/23 15:16:09;;;;;;;6.20;3.80;;;;;;;;;;5049802;28;20428;-64
2021/12/23 15:21:11;;;;;;;6.97;3.80;;;;;;;;;;5051429;28;20886;-63
2021/12/23 15:23:45;;;;;;;7.10;3.50;;;;;;;;;;5053311;28;20843;-60
2021/12/23 15:26:28;;;;;;;8.27;3.40;;;;;;;;;;5054990;28;20450;-62
2021/12/23 15:29:08;;;;;;;8.20;4.40;;;;;;;;;;5051497;28;20512;-62
2021/12/23 15:31:35;;;;;;;17.10;4.70;;;;;;;;;;5052287;28;20429;-60
2021/12/23 15:34:06;;;;;;;6.57;4.20;;;;;;;;;;5052935;28;20995;-60
2021/12/23 15:36:32;;;;;;;8.80;3.87;;;;;;;;;;5053610;28;20496;-59
2021/12/23 15:38:58;;;;;;;10.20;3.70;;;;;;;;;;5053339;28;20421;-64